»·PEaware :: UAL550 KSFO-KPDX

UAL550 :: KSFO-KPDX

FLIGHT INFORMATION

Flight Status: Arrived
Operator:
United Airlines
More flights by this operator :: More flights under this callsign
Pilot: Saso K. (7898)
Aircraft: BOEING 737-300
(B733)
More flights by this aircraft type
Origin: KSFO San Francisco Intl
United States
Destination: KPDX Portland Intl
United States
More flights between these airports :: More routes between these airports
Route: TRUKN2 GRTFL MACHU TMBRS2
File this flight plan on PilotEdge
Remarks:
Altitude:
(Current/Filed)
36,000ft
Speed:
(Current/Filed)
433kts
Departed: 04-Jan-17 04:48 PM
Arrived: 04-Jan-17 06:15 PM
Distance/Time
Traveled:
478nm/1:27
Distance/Time
To Go:
Arrived

Flight Plot

Page will automatically refresh every two minutes.


Map Options




Map Legend


Flown Route
Filed Route
Departure Airport
Arrival Airport
Navaid (VOR, NDB)
Fix

Horizontal Profiles

Position Reports

Time Latitude Longitude Heading Altitude Ground
Speed
04-Jan-17 16:27 37.618776 -122.385187 155 30ft 0kts
04-Jan-17 16:28 37.618777 -122.385187 155 30ft 0kts
04-Jan-17 16:29 37.618777 -122.385187 155 30ft 0kts
04-Jan-17 16:30 37.618777 -122.385187 155 30ft 0kts
04-Jan-17 16:31 37.618777 -122.385187 155 30ft 0kts
04-Jan-17 16:32 37.618777 -122.385187 155 30ft 0kts
04-Jan-17 16:33 37.618777 -122.385187 155 30ft 0kts
04-Jan-17 16:34 37.618777 -122.385187 155 30ft 0kts
04-Jan-17 16:35 37.618777 -122.385187 155 30ft 0kts
04-Jan-17 16:36 37.618777 -122.385187 155 30ft 0kts
04-Jan-17 16:37 37.618777 -122.385187 155 30ft 0kts
04-Jan-17 16:38 37.618777 -122.385187 155 30ft 0kts
04-Jan-17 16:39 37.619134 -122.385395 155 30ft 2kts
04-Jan-17 16:40 37.619490 -122.385782 61 30ft 1kts
04-Jan-17 16:41 37.619856 -122.385579 28 30ft 2kts
04-Jan-17 16:42 37.620020 -122.385468 27 30ft 0kts
04-Jan-17 16:43 37.620020 -122.385468 27 30ft 0kts
04-Jan-17 16:44 37.620273 -122.383484 117 30ft 18kts
04-Jan-17 16:45 37.616169 -122.379943 207 30ft 21kts
04-Jan-17 16:46 37.610899 -122.383420 208 30ft 22kts
04-Jan-17 16:47 37.608757 -122.382768 120 29ft 4kts
04-Jan-17 16:48 37.620500 -122.374559 28 19ft 152kts
04-Jan-17 16:49 37.655563 -122.337927 58 2037ft 198kts
04-Jan-17 16:50 37.688611 -122.270663 53 3739ft 267kts
04-Jan-17 16:51 37.738864 -122.215978 355 6454ft 263kts
04-Jan-17 16:52 37.809223 -122.218596 351 9252ft 279kts
04-Jan-17 16:53 37.885907 -122.220954 351 10736ft 338kts
04-Jan-17 16:54 37.976517 -122.223296 350 13307ft 357kts
04-Jan-17 16:55 38.071782 -122.225824 349 15912ft 371kts
04-Jan-17 16:56 38.159042 -122.228151 348 17998ft 383kts
04-Jan-17 16:57 38.259614 -122.230844 347 20146ft 396kts
04-Jan-17 16:58 38.361881 -122.233761 346 22142ft 405kts
04-Jan-17 16:59 38.465779 -122.241457 343 23954ft 412kts
04-Jan-17 17:00 38.568666 -122.252014 342 25602ft 421kts
04-Jan-17 17:01 38.678388 -122.263442 342 27197ft 430kts
04-Jan-17 17:02 38.784552 -122.274509 341 28763ft 433kts
04-Jan-17 17:03 38.891015 -122.285632 340 30604ft 426kts
04-Jan-17 17:04 38.992522 -122.296285 340 32255ft 418kts
04-Jan-17 17:05 39.092521 -122.306827 340 33766ft 408kts
04-Jan-17 17:06 39.183909 -122.316514 340 34810ft 405kts
04-Jan-17 17:07 39.285808 -122.327328 340 35766ft 404kts
04-Jan-17 17:08 39.390179 -122.338514 340 35997ft 417kts
04-Jan-17 17:09 39.498084 -122.349946 341 36020ft 418kts
04-Jan-17 17:10 39.608416 -122.361746 341 36015ft 417kts
04-Jan-17 17:11 39.721486 -122.373883 341 36013ft 418kts
04-Jan-17 17:12 39.835617 -122.386170 340 36011ft 417kts
04-Jan-17 17:13 39.949422 -122.398474 340 36011ft 418kts
04-Jan-17 17:14 40.063547 -122.410843 341 36013ft 417kts
04-Jan-17 17:15 40.172658 -122.422710 341 36011ft 417kts
04-Jan-17 17:16 40.287610 -122.435254 340 36001ft 418kts
04-Jan-17 17:17 40.402118 -122.447787 341 35995ft 417kts
04-Jan-17 17:18 40.516968 -122.460410 341 36000ft 417kts
04-Jan-17 17:19 40.631839 -122.473062 341 36001ft 417kts
04-Jan-17 17:20 40.745695 -122.484994 339 36004ft 415kts
04-Jan-17 17:21 40.860559 -122.496351 341 36001ft 418kts
04-Jan-17 17:22 40.975201 -122.508862 341 36000ft 417kts
04-Jan-17 17:23 41.090722 -122.521037 344 35998ft 423kts
04-Jan-17 17:24 41.201314 -122.534083 345 35996ft 424kts
04-Jan-17 17:25 41.317633 -122.547925 345 35989ft 423kts
04-Jan-17 17:26 41.434153 -122.561844 345 35992ft 424kts
04-Jan-17 17:27 41.549660 -122.575569 346 36008ft 421kts
04-Jan-17 17:28 41.666449 -122.584521 348 36008ft 424kts
04-Jan-17 17:29 41.782647 -122.592106 348 36009ft 424kts
04-Jan-17 17:30 41.895789 -122.599520 348 36009ft 424kts
04-Jan-17 17:31 42.012039 -122.607165 348 36009ft 424kts
04-Jan-17 17:32 42.122638 -122.614462 348 36014ft 423kts
04-Jan-17 17:33 42.234386 -122.621894 348 36051ft 424kts
04-Jan-17 17:34 42.344299 -122.629225 348 36063ft 423kts
04-Jan-17 17:35 42.455417 -122.636660 348 36065ft 423kts
04-Jan-17 17:36 42.566270 -122.644103 348 36063ft 423kts
04-Jan-17 17:37 42.670591 -122.651131 347 36073ft 423kts
04-Jan-17 17:38 42.780626 -122.658556 347 36061ft 422kts
04-Jan-17 17:39 42.890196 -122.665987 347 36066ft 422kts
04-Jan-17 17:40 42.999377 -122.673435 349 36063ft 419kts
04-Jan-17 17:41 43.105423 -122.680681 351 36083ft 418kts
04-Jan-17 17:42 43.207603 -122.687705 350 36107ft 419kts
04-Jan-17 17:43 43.312622 -122.694917 350 36111ft 418kts
04-Jan-17 17:44 43.417663 -122.702005 351 36109ft 420kts
04-Jan-17 17:45 43.523962 -122.707626 350 36105ft 419kts
04-Jan-17 17:46 43.629771 -122.714905 350 36134ft 419kts
04-Jan-17 17:47 43.738265 -122.722441 350 36156ft 419kts
04-Jan-17 17:48 43.847032 -122.730002 350 36153ft 419kts
04-Jan-17 17:49 43.953924 -122.737469 350 36155ft 419kts
04-Jan-17 17:50 44.061060 -122.744976 350 34183ft 417kts
04-Jan-17 17:51 44.133998 -122.750112 351 32471ft 414kts
04-Jan-17 17:52 44.241494 -122.744133 359 29978ft 413kts
04-Jan-17 17:53 44.347114 -122.733656 359 28234ft 389kts
04-Jan-17 17:54 44.449219 -122.723579 0 26221ft 374kts
04-Jan-17 17:55 44.549697 -122.713620 0 24314ft 355kts
04-Jan-17 17:56 44.644447 -122.704194 1 22232ft 348kts
04-Jan-17 17:57 44.737267 -122.694879 2 20291ft 338kts
04-Jan-17 17:58 44.826762 -122.685857 2 18386ft 329kts
04-Jan-17 17:59 44.913619 -122.677095 3 16539ft 321kts
04-Jan-17 18:00 44.997023 -122.669258 4 14817ft 297kts
04-Jan-17 18:01 45.072100 -122.662391 9 13391ft 276kts
04-Jan-17 18:02 45.140723 -122.655479 12 11556ft 284kts
04-Jan-17 18:03 45.214128 -122.648075 11 10043ft 269kts
04-Jan-17 18:04 45.284430 -122.662778 346 8579ft 268kts
04-Jan-17 18:05 45.350610 -122.698561 345 7333ft 262kts
04-Jan-17 18:06 45.417073 -122.734921 345 6258ft 263kts
04-Jan-17 18:07 45.483974 -122.771769 344 5423ft 261kts
04-Jan-17 18:08 45.545864 -122.806303 344 4964ft 228kts
04-Jan-17 18:09 45.601452 -122.807661 22 3900ft 207kts
04-Jan-17 18:10 45.655524 -122.783496 46 2478ft 199kts
04-Jan-17 18:11 45.648726 -122.727592 124 2213ft 151kts
04-Jan-17 18:12 45.628303 -122.681914 117 1396ft 136kts
04-Jan-17 18:13 45.610386 -122.635791 117 717ft 135kts
04-Jan-17 18:14 45.592978 -122.590948 117 24ft 118kts
04-Jan-17 18:15 45.586647 -122.576151 196 24ft 7kts
04-Jan-17 18:16 45.586238 -122.576457 214 24ft 1kts
04-Jan-17 18:17 45.587474 -122.580033 298 23ft 15kts
04-Jan-17 18:18 45.589592 -122.586004 269 24ft 13kts
04-Jan-17 18:19 45.590635 -122.590285 291 24ft 5kts
04-Jan-17 18:20 45.590044 -122.591059 207 23ft 0kts
04-Jan-17 18:21 45.590044 -122.591059 207 23ft 0kts
04-Jan-17 18:22 45.590044 -122.591059 207 23ft 0kts

Navigation Log

Ident Type
1. KSFO Airport
2. KPDX Airport